createdAt,value
2022-08-20T00:00:44.116Z,26.36
2022-08-20T00:01:48.932Z,26.41
2022-08-20T00:03:01.781Z,26.40
2022-08-20T00:04:05.747Z,26.42
2022-08-20T00:05:13.098Z,26.35
2022-08-20T00:06:22.316Z,26.41
2022-08-20T00:07:26.145Z,26.41
2022-08-20T00:08:31.111Z,26.40
2022-08-20T00:09:36.430Z,26.29
2022-08-20T00:10:47.642Z,26.30
2022-08-20T00:11:56.555Z,26.30
2022-08-20T00:13:02.344Z,26.28
2022-08-20T00:14:07.484Z,26.28
2022-08-20T00:15:14.838Z,26.27
2022-08-20T00:16:22.070Z,26.26
2022-08-20T00:17:26.047Z,26.27
2022-08-20T00:18:30.449Z,26.21
2022-08-20T00:19:34.930Z,26.11
2022-08-20T00:20:45.937Z,26.12
2022-08-20T00:21:50.312Z,26.11
2022-08-20T00:22:59.636Z,26.11
2022-08-20T00:24:04.673Z,26.11
2022-08-20T00:25:11.658Z,26.15
2022-08-20T00:26:16.500Z,26.17
2022-08-20T00:27:20.303Z,26.14
2022-08-20T00:28:24.285Z,26.19
2022-08-20T00:29:28.846Z,26.16
2022-08-20T00:30:35.667Z,26.18
2022-08-20T00:31:39.500Z,26.20
2022-08-20T00:32:58.854Z,26.22
2022-08-20T00:34:02.654Z,26.21
2022-08-20T00:35:08.923Z,26.26
2022-08-20T00:36:18.765Z,26.28
2022-08-20T00:37:22.982Z,26.29
2022-08-20T00:38:27.032Z,26.31
2022-08-20T00:39:30.809Z,26.32
2022-08-20T00:40:55.928Z,26.33
2022-08-20T00:41:59.956Z,26.34
2022-08-20T00:43:23.960Z,26.32
2022-08-20T00:44:28.420Z,26.35
2022-08-20T00:45:35.280Z,26.35
2022-08-20T00:46:41.226Z,26.36
2022-08-20T00:47:51.082Z,26.37
2022-08-20T00:48:58.710Z,26.38
2022-08-20T00:50:06.687Z,26.38
2022-08-20T00:51:38.523Z,26.35
2022-08-20T00:52:49.745Z,26.36
2022-08-20T00:54:00.414Z,26.35
2022-08-20T00:55:08.089Z,26.35
2022-08-20T00:56:13.845Z,26.36
2022-08-20T00:57:53.305Z,26.29
2022-08-20T00:59:05.541Z,26.41
2022-08-20T01:00:28.389Z,26.40
2022-08-20T01:01:48.171Z,26.44
2022-08-20T01:03:00.784Z,26.45
2022-08-20T01:04:10.988Z,26.44
2022-08-20T01:05:15.739Z,26.39
2022-08-20T01:06:19.843Z,26.43
2022-08-20T01:07:38.459Z,26.41
2022-08-20T01:08:43.521Z,26.40
2022-08-20T01:09:59.022Z,26.38
2022-08-20T01:11:09.808Z,26.34
2022-08-20T01:12:16.980Z,26.28
2022-08-20T01:13:25.919Z,26.21
2022-08-20T01:14:46.220Z,26.23
2022-08-20T01:15:55.608Z,26.21
2022-08-20T01:17:08.715Z,26.15
2022-08-20T01:18:25.378Z,26.17
2022-08-20T01:19:46.336Z,26.17
2022-08-20T01:20:56.488Z,26.17
2022-08-20T01:22:24.043Z,26.19
2022-08-20T01:24:15.142Z,26.21
2022-08-20T01:25:56.936Z,26.19
2022-08-20T01:27:04.701Z,26.12
2022-08-20T01:28:10.675Z,26.05
2022-08-20T01:29:21.749Z,26.05
2022-08-20T01:30:29.808Z,26.11
2022-08-20T01:31:38.436Z,26.06
2022-08-20T01:32:42.710Z,26.12
2022-08-20T01:33:47.908Z,26.11
2022-08-20T01:34:51.863Z,26.12
2022-08-20T01:35:56.156Z,26.13
2022-08-20T01:37:01.155Z,26.14
2022-08-20T01:38:07.447Z,26.12
2022-08-20T01:39:15.978Z,26.10
2022-08-20T01:40:53.231Z,26.09
2022-08-20T01:42:19.696Z,26.09
2022-08-20T01:43:24.516Z,26.11
2022-08-20T01:44:30.994Z,26.09
2022-08-20T01:45:36.998Z,26.08
2022-08-20T01:46:47.635Z,26.08
2022-08-20T01:47:51.663Z,26.09
2022-08-20T01:48:57.924Z,26.00
2022-08-20T01:50:26.262Z,26.03
2022-08-20T01:51:31.409Z,26.05
2022-08-20T01:53:07.047Z,26.02
2022-08-20T01:54:11.536Z,26.05
2022-08-20T01:55:16.560Z,26.04
2022-08-20T01:56:27.219Z,25.97
2022-08-20T01:57:32.410Z,26.03
2022-08-20T01:58:43.371Z,26.02
2022-08-20T01:59:50.912Z,26.04
2022-08-20T02:00:54.905Z,25.98
2022-08-20T02:02:04.121Z,26.05
2022-08-20T02:03:08.948Z,25.98
2022-08-20T02:04:18.192Z,26.05
2022-08-20T02:05:22.895Z,26.02
2022-08-20T02:06:29.038Z,26.02
2022-08-20T02:07:33.622Z,26.03
2022-08-20T02:08:38.475Z,26.05
2022-08-20T02:09:43.240Z,26.05
2022-08-20T02:10:47.417Z,26.03
2022-08-20T02:11:53.524Z,26.05
2022-08-20T02:12:59.272Z,26.06
2022-08-20T02:14:07.895Z,26.05
2022-08-20T02:15:15.101Z,26.03
2022-08-20T02:16:25.780Z,26.02
2022-08-20T02:17:30.549Z,25.95
2022-08-20T02:18:34.688Z,25.95
2022-08-20T02:19:48.983Z,26.00
2022-08-20T02:20:53.589Z,25.99
2022-08-20T02:22:07.039Z,25.93
2022-08-20T02:23:13.128Z,25.98
2022-08-20T02:24:17.905Z,25.97
2022-08-20T02:25:30.692Z,25.96
2022-08-20T02:26:38.324Z,25.92
2022-08-20T02:27:49.049Z,25.89
2022-08-20T02:28:56.523Z,25.75
2022-08-20T02:30:27.448Z,25.81
2022-08-20T02:31:34.926Z,25.81
2022-08-20T02:32:41.468Z,25.81
2022-08-20T02:34:21.909Z,25.81
2022-08-20T02:35:13.549Z,25.76
2022-08-20T02:36:20.253Z,25.79
2022-08-20T02:37:24.479Z,25.79
2022-08-20T02:38:28.532Z,25.77
2022-08-20T02:39:33.573Z,25.80
2022-08-20T02:40:38.201Z,25.79
2022-08-20T02:41:42.616Z,25.79
2022-08-20T02:42:47.216Z,25.78
2022-08-20T02:43:51.546Z,25.81
2022-08-20T02:44:58.778Z,25.83
2022-08-20T02:46:03.732Z,25.81
2022-08-20T02:47:08.115Z,25.81
2022-08-20T02:48:23.794Z,25.81
2022-08-20T02:49:27.787Z,25.81
2022-08-20T02:50:32.864Z,25.78
2022-08-20T02:51:37.351Z,25.78
2022-08-20T02:52:47.178Z,25.71
2022-08-20T02:53:56.006Z,25.72
2022-08-20T02:54:59.926Z,25.75
2022-08-20T02:56:07.610Z,25.78
2022-08-20T02:57:20.968Z,25.76
2022-08-20T02:58:25.663Z,25.74
2022-08-20T02:59:29.783Z,25.75
2022-08-20T03:00:37.982Z,25.76
2022-08-20T03:01:42.846Z,25.69
2022-08-20T03:02:48.713Z,25.76
2022-08-20T03:03:52.599Z,25.76
2022-08-20T03:04:57.176Z,25.73
2022-08-20T03:06:01.894Z,25.73
2022-08-20T03:07:07.522Z,25.74
2022-08-20T03:08:15.259Z,25.74
2022-08-20T03:09:19.871Z,25.75
2022-08-20T03:10:34.369Z,25.73
2022-08-20T03:11:39.610Z,25.74
2022-08-20T03:12:43.458Z,25.73
2022-08-20T03:13:49.208Z,25.75
2022-08-20T03:14:53.195Z,25.75
2022-08-20T03:16:00.690Z,25.71
2022-08-20T03:17:05.924Z,25.71
2022-08-20T03:18:10.491Z,25.68
2022-08-20T03:19:14.676Z,25.67
2022-08-20T03:20:22.412Z,25.60
2022-08-20T03:21:32.840Z,25.48
2022-08-20T03:22:40.468Z,25.63
2022-08-20T03:23:44.343Z,25.54
2022-08-20T03:24:48.200Z,25.52
2022-08-20T03:25:52.393Z,25.58
2022-08-20T03:26:56.519Z,25.58
2022-08-20T03:28:01.324Z,25.61
2022-08-20T03:29:05.542Z,25.59
2022-08-20T03:30:14.027Z,25.58
2022-08-20T03:31:18.620Z,25.58
2022-08-20T03:32:23.318Z,25.59
2022-08-20T03:33:29.509Z,25.57
2022-08-20T03:34:33.826Z,25.54
2022-08-20T03:35:39.424Z,25.52
2022-08-20T03:36:43.266Z,25.51
2022-08-20T03:37:55.493Z,25.50
2022-08-20T03:39:04.732Z,25.48
2022-08-20T03:40:15.802Z,25.48
2022-08-20T03:41:20.215Z,25.41
2022-08-20T03:42:24.021Z,25.40
2022-08-20T03:43:28.498Z,25.47
2022-08-20T03:44:32.860Z,25.48
2022-08-20T03:45:40.210Z,25.48
2022-08-20T03:46:44.105Z,25.51
2022-08-20T03:47:49.808Z,25.50
2022-08-20T03:49:00.236Z,25.49
2022-08-20T03:50:11.120Z,25.50
2022-08-20T03:51:27.101Z,25.53
2022-08-20T03:52:31.154Z,25.51
2022-08-20T03:53:36.015Z,25.51
2022-08-20T03:54:40.435Z,25.52
2022-08-20T03:55:56.442Z,25.43
2022-08-20T03:57:12.302Z,25.52
2022-08-20T03:58:18.170Z,25.51
2022-08-20T03:59:22.164Z,25.47
2022-08-20T04:00:45.547Z,25.44
2022-08-20T04:01:49.413Z,25.37
2022-08-20T04:02:53.745Z,25.43
2022-08-20T04:03:58.819Z,25.41
2022-08-20T04:05:04.678Z,25.42
2022-08-20T04:06:09.684Z,25.41
2022-08-20T04:07:20.777Z,25.39
2022-08-20T04:08:29.677Z,25.42
2022-08-20T04:09:33.672Z,25.45
2022-08-20T04:10:38.283Z,25.44
2022-08-20T04:11:43.306Z,25.46
2022-08-20T04:12:53.072Z,25.47
2022-08-20T04:13:57.133Z,25.42
2022-08-20T04:15:02.070Z,25.52
2022-08-20T04:16:11.284Z,25.49
2022-08-20T04:17:20.745Z,25.57
2022-08-20T04:18:26.862Z,25.56
2022-08-20T04:19:34.227Z,25.60
2022-08-20T04:20:41.514Z,25.60
2022-08-20T04:21:48.837Z,25.63
2022-08-20T04:22:59.082Z,25.64
2022-08-20T04:24:08.472Z,25.59
2022-08-20T04:25:36.161Z,25.69
2022-08-20T04:26:40.130Z,25.71
2022-08-20T04:27:46.394Z,25.71
2022-08-20T04:28:55.879Z,25.73
2022-08-20T04:30:04.219Z,25.75
2022-08-20T04:31:09.286Z,25.78
2022-08-20T04:32:14.297Z,25.79
2022-08-20T04:33:35.140Z,25.81
2022-08-20T04:34:40.915Z,25.84
2022-08-20T04:35:48.806Z,25.84
2022-08-20T04:36:54.651Z,25.88
2022-08-20T04:38:14.190Z,25.89
2022-08-20T04:39:19.136Z,25.91
2022-08-20T04:40:41.875Z,25.88
2022-08-20T04:41:45.756Z,25.91
2022-08-20T04:42:49.761Z,25.92
2022-08-20T04:43:58.933Z,25.95
2022-08-20T04:45:04.447Z,25.96
2022-08-20T04:46:17.158Z,25.99
2022-08-20T04:47:23.919Z,25.99
2022-08-20T04:48:42.147Z,25.99
2022-08-20T04:49:53.089Z,25.94
2022-08-20T04:51:03.966Z,26.04
2022-08-20T04:52:07.863Z,26.03
2022-08-20T04:53:20.692Z,26.01
2022-08-20T04:54:27.297Z,26.01
2022-08-20T04:55:32.550Z,25.96
2022-08-20T04:56:40.152Z,25.91
2022-08-20T04:57:46.295Z,25.91
2022-08-20T04:58:51.571Z,25.91
2022-08-20T04:59:59.361Z,25.78
2022-08-20T05:01:11.562Z,25.85
2022-08-20T05:02:19.104Z,25.89
2022-08-20T05:03:24.408Z,25.92
2022-08-20T05:04:29.131Z,25.93
2022-08-20T05:05:35.444Z,25.95
2022-08-20T05:06:41.272Z,25.98
2022-08-20T05:07:47.128Z,26.01
2022-08-20T05:08:51.301Z,26.07
2022-08-20T05:09:55.195Z,26.09
2022-08-20T05:11:32.633Z,26.08
2022-08-20T05:12:24.278Z,26.25
2022-08-20T05:13:28.836Z,26.28
2022-08-20T05:14:32.792Z,26.34
2022-08-20T05:15:39.087Z,26.32
2022-08-20T05:16:42.892Z,26.29
2022-08-20T05:17:47.083Z,26.34
2022-08-20T05:18:52.900Z,26.39
2022-08-20T05:19:59.356Z,26.45
2022-08-20T05:21:07.440Z,26.51
2022-08-20T05:22:11.958Z,26.49
2022-08-20T05:23:20.103Z,26.60
2022-08-20T05:24:25.205Z,26.61
2022-08-20T05:25:30.989Z,26.68
2022-08-20T05:26:35.230Z,26.77
2022-08-20T05:27:39.774Z,26.77
2022-08-20T05:28:54.146Z,26.82
2022-08-20T05:30:13.679Z,26.85
2022-08-20T05:31:21.254Z,26.91
2022-08-20T05:32:25.593Z,26.98
2022-08-20T05:33:30.294Z,27.05
2022-08-20T05:34:34.297Z,27.14
2022-08-20T05:35:41.380Z,27.23
2022-08-20T05:36:49.276Z,27.34
2022-08-20T05:37:54.454Z,27.43
2022-08-20T05:38:58.590Z,27.52
2022-08-20T05:40:02.820Z,27.60
2022-08-20T05:41:06.826Z,27.67
2022-08-20T05:42:12.136Z,27.73
2022-08-20T05:43:16.523Z,27.79
2022-08-20T05:44:23.516Z,27.85
2022-08-20T05:45:27.526Z,27.86
2022-08-20T05:46:32.489Z,27.88
2022-08-20T05:47:42.892Z,27.99
2022-08-20T05:48:47.787Z,28.00
2022-08-20T05:49:52.326Z,28.03
2022-08-20T05:50:58.054Z,28.02
2022-08-20T05:52:02.109Z,28.02
2022-08-20T05:53:07.233Z,28.03
2022-08-20T05:54:15.402Z,28.04
2022-08-20T05:55:19.370Z,28.06
2022-08-20T05:56:26.817Z,28.01
2022-08-20T05:57:31.063Z,28.01
2022-08-20T05:58:34.964Z,27.99
2022-08-20T05:59:39.744Z,28.03
2022-08-20T06:00:43.848Z,27.94
2022-08-20T06:01:47.853Z,28.07
2022-08-20T06:03:10.809Z,28.10
2022-08-20T06:04:32.259Z,28.18
2022-08-20T06:05:36.202Z,28.18
2022-08-20T06:06:45.651Z,28.18
2022-08-20T06:07:54.871Z,28.27
2022-08-20T06:09:13.760Z,28.40
2022-08-20T06:10:18.506Z,28.49
2022-08-20T06:11:23.292Z,28.64
2022-08-20T06:12:27.550Z,28.66
2022-08-20T06:13:31.570Z,28.79
2022-08-20T06:14:36.389Z,28.78
2022-08-20T06:15:40.512Z,28.92
2022-08-20T06:16:57.176Z,28.97
2022-08-20T06:18:27.357Z,29.04
2022-08-20T06:19:34.163Z,29.05
2022-08-20T06:20:39.700Z,29.05
2022-08-20T06:21:43.649Z,29.10
2022-08-20T06:22:47.571Z,29.06
2022-08-20T06:23:57.458Z,29.07
2022-08-20T06:25:08.510Z,29.06
2022-08-20T06:26:12.697Z,29.05
2022-08-20T06:27:17.844Z,29.02
2022-08-20T06:28:24.487Z,29.03
2022-08-20T06:29:36.913Z,29.02
2022-08-20T06:30:43.843Z,28.95
2022-08-20T06:31:47.725Z,28.97
2022-08-20T06:32:52.979Z,28.96
2022-08-20T06:33:57.247Z,28.97
2022-08-20T06:35:04.798Z,29.01
2022-08-20T06:36:09.612Z,29.03
2022-08-20T06:37:21.581Z,29.05
2022-08-20T06:38:25.769Z,29.13
2022-08-20T06:39:31.558Z,29.21
2022-08-20T06:40:35.514Z,29.30
2022-08-20T06:41:39.618Z,29.37
2022-08-20T06:42:48.513Z,29.48
2022-08-20T06:43:54.090Z,29.47
2022-08-20T06:44:59.929Z,29.56
2022-08-20T06:46:05.041Z,29.57
2022-08-20T06:47:09.797Z,29.55
2022-08-20T06:48:15.466Z,29.54
2022-08-20T06:49:19.583Z,29.52
2022-08-20T06:50:33.235Z,29.49
2022-08-20T06:51:40.043Z,29.48
2022-08-20T06:52:52.938Z,29.45
2022-08-20T06:53:58.206Z,29.44
2022-08-20T06:55:02.183Z,29.43
2022-08-20T06:56:06.812Z,29.42
2022-08-20T06:57:10.853Z,29.40
2022-08-20T06:58:30.521Z,29.39
2022-08-20T06:59:40.150Z,29.35
2022-08-20T07:00:45.531Z,29.37
2022-08-20T07:01:50.315Z,29.35
2022-08-20T07:02:55.739Z,29.25
2022-08-20T07:04:00.566Z,29.27
2022-08-20T07:05:07.051Z,29.27
2022-08-20T07:06:11.861Z,29.29
2022-08-20T07:07:19.984Z,29.29
2022-08-20T07:08:23.886Z,29.25
2022-08-20T07:09:28.577Z,29.27
2022-08-20T07:10:32.435Z,29.28
2022-08-20T07:11:36.540Z,29.27
2022-08-20T07:12:40.858Z,29.25
2022-08-20T07:13:45.579Z,29.27
2022-08-20T07:14:49.436Z,29.27
2022-08-20T07:15:53.995Z,29.26
2022-08-20T07:16:58.836Z,29.25
2022-08-20T07:18:05.765Z,29.23
2022-08-20T07:19:10.130Z,29.23
2022-08-20T07:20:16.072Z,29.21
2022-08-20T07:21:19.848Z,29.23
2022-08-20T07:22:24.989Z,29.19
2022-08-20T07:23:31.824Z,29.16
2022-08-20T07:24:37.886Z,29.18
2022-08-20T07:25:45.419Z,29.17
2022-08-20T07:26:52.246Z,29.19
2022-08-20T07:28:08.264Z,29.14
2022-08-20T07:29:13.585Z,29.24
2022-08-20T07:30:56.965Z,29.34
2022-08-20T07:32:22.436Z,29.67
2022-08-20T07:33:33.520Z,29.99
2022-08-20T07:34:37.929Z,30.33
2022-08-20T07:35:49.310Z,30.67
2022-08-20T07:36:53.307Z,30.95
2022-08-20T07:37:59.806Z,31.19
2022-08-20T07:39:08.006Z,31.38
2022-08-20T07:40:33.976Z,31.92
2022-08-20T07:41:37.913Z,32.74
2022-08-20T07:42:42.419Z,33.52
2022-08-20T07:43:48.454Z,34.08
2022-08-20T07:44:52.894Z,34.50
2022-08-20T07:46:03.510Z,34.88
2022-08-20T07:47:07.737Z,35.16
2022-08-20T07:48:14.513Z,35.27
2022-08-20T07:49:39.803Z,35.22
2022-08-20T07:50:44.233Z,34.89
2022-08-20T07:51:48.138Z,34.90
2022-08-20T07:52:53.308Z,34.75
2022-08-20T07:53:59.562Z,34.66
2022-08-20T07:55:11.609Z,34.53
2022-08-20T07:56:21.530Z,34.51
2022-08-20T07:57:25.356Z,34.49
2022-08-20T07:58:33.390Z,34.46
2022-08-20T07:59:38.673Z,34.31
2022-08-20T08:00:44.332Z,34.01
2022-08-20T08:01:48.398Z,33.60
2022-08-20T08:02:53.228Z,33.49
2022-08-20T08:03:58.788Z,33.38
2022-08-20T08:05:04.370Z,33.34
2022-08-20T08:06:10.024Z,33.30
2022-08-20T08:07:18.438Z,33.42
2022-08-20T08:08:28.647Z,33.62
2022-08-20T08:09:34.819Z,34.17
2022-08-20T08:10:41.072Z,34.72
2022-08-20T08:11:50.951Z,35.33
2022-08-20T08:13:01.031Z,35.58
2022-08-20T08:14:10.386Z,35.88
2022-08-20T08:15:22.752Z,35.86
2022-08-20T08:16:28.106Z,35.69
2022-08-20T08:17:32.067Z,35.93
2022-08-20T08:18:50.075Z,36.67
2022-08-20T08:19:54.178Z,37.07
2022-08-20T08:20:58.266Z,37.17
2022-08-20T08:22:02.343Z,37.25
2022-08-20T08:23:07.897Z,37.25
2022-08-20T08:24:24.311Z,36.90
2022-08-20T08:25:32.682Z,36.57
2022-08-20T08:26:36.702Z,36.28
2022-08-20T08:27:41.175Z,36.14
2022-08-20T08:28:45.219Z,36.12
2022-08-20T08:29:50.128Z,36.20
2022-08-20T08:30:54.742Z,36.32
2022-08-20T08:32:02.968Z,36.73
2022-08-20T08:33:27.148Z,37.44
2022-08-20T08:34:37.233Z,38.82
2022-08-20T08:35:46.767Z,39.55
2022-08-20T08:36:51.072Z,40.37
2022-08-20T08:37:55.093Z,40.64
2022-08-20T08:38:59.671Z,40.94
2022-08-20T08:40:06.274Z,41.10
2022-08-20T08:41:32.281Z,41.11
2022-08-20T08:42:46.755Z,41.34
2022-08-20T08:43:54.378Z,41.52
2022-08-20T08:45:00.789Z,41.84
2022-08-20T08:46:10.845Z,41.97
2022-08-20T08:47:38.072Z,42.20
2022-08-20T08:48:47.964Z,42.32
2022-08-20T08:49:52.094Z,42.48
2022-08-20T08:50:59.775Z,42.33
2022-08-20T08:52:12.534Z,42.44
2022-08-20T08:53:24.932Z,42.51
2022-08-20T08:54:32.641Z,42.58
2022-08-20T08:55:36.662Z,42.58
2022-08-20T08:56:40.657Z,42.62
2022-08-20T08:57:46.043Z,42.79
2022-08-20T08:58:49.991Z,42.81
2022-08-20T09:00:14.119Z,42.42
2022-08-20T09:01:54.504Z,42.64
2022-08-20T09:03:22.032Z,42.83
2022-08-20T09:04:39.473Z,42.91
2022-08-20T09:05:55.362Z,42.98
2022-08-20T09:07:02.016Z,42.89
2022-08-20T09:08:16.888Z,42.94
2022-08-20T09:09:32.369Z,42.80
2022-08-20T09:10:36.953Z,42.54
2022-08-20T09:12:21.112Z,42.47
2022-08-20T09:13:25.300Z,42.41
2022-08-20T09:14:29.373Z,42.61
2022-08-20T09:15:33.615Z,42.74
2022-08-20T09:16:45.742Z,42.99
2022-08-20T09:17:57.780Z,43.08
2022-08-20T09:19:04.781Z,43.02
2022-08-20T09:20:11.451Z,42.82
2022-08-20T09:21:15.433Z,42.65
2022-08-20T09:22:26.080Z,42.64
2022-08-20T09:23:30.492Z,42.02
2022-08-20T09:24:34.301Z,41.53
2022-08-20T09:25:38.366Z,40.98
2022-08-20T09:26:42.314Z,40.42
2022-08-20T09:27:46.292Z,40.13
2022-08-20T09:28:52.638Z,39.84
2022-08-20T09:29:56.875Z,39.49
2022-08-20T09:31:00.832Z,39.28
2022-08-20T09:32:10.097Z,39.01
2022-08-20T09:33:14.099Z,38.67
2022-08-20T09:34:17.972Z,38.30
2022-08-20T09:35:22.552Z,38.12
2022-08-20T09:36:32.032Z,37.99
2022-08-20T09:37:37.940Z,37.93
2022-08-20T09:38:41.997Z,37.81
2022-08-20T09:39:45.857Z,37.69
2022-08-20T09:40:50.081Z,37.53
2022-08-20T09:41:54.040Z,37.54
2022-08-20T09:42:58.232Z,37.45
2022-08-20T09:44:02.779Z,37.42
2022-08-20T09:45:10.885Z,37.38
2022-08-20T09:46:18.125Z,37.02
2022-08-20T09:47:22.984Z,36.92
2022-08-20T09:48:29.600Z,36.88
2022-08-20T09:49:40.824Z,36.76
2022-08-20T09:50:49.752Z,36.65
2022-08-20T09:51:53.624Z,36.45
2022-08-20T09:53:01.125Z,36.48
2022-08-20T09:54:06.259Z,36.41
2022-08-20T09:55:30.834Z,36.35
2022-08-20T09:56:36.308Z,36.30
2022-08-20T09:57:41.297Z,36.25
2022-08-20T09:58:53.096Z,36.23
2022-08-20T10:00:09.181Z,36.14
2022-08-20T10:01:18.563Z,36.05
2022-08-20T10:02:25.255Z,35.99
2022-08-20T10:03:29.153Z,35.98
2022-08-20T10:04:33.042Z,35.91
2022-08-20T10:05:37.156Z,35.82
2022-08-20T10:06:42.531Z,35.77
2022-08-20T10:07:46.378Z,35.58
2022-08-20T10:08:51.029Z,35.67
2022-08-20T10:09:55.351Z,35.61
2022-08-20T10:10:59.752Z,35.38
2022-08-20T10:12:04.838Z,35.29
2022-08-20T10:13:08.847Z,35.23
2022-08-20T10:14:17.208Z,35.12
2022-08-20T10:15:21.160Z,34.96
2022-08-20T10:16:25.879Z,34.70
2022-08-20T10:17:29.783Z,34.54
2022-08-20T10:18:35.712Z,34.27
2022-08-20T10:19:39.768Z,34.27
2022-08-20T10:20:43.883Z,34.20
2022-08-20T10:21:50.972Z,34.18
2022-08-20T10:22:54.775Z,34.08
2022-08-20T10:24:00.090Z,34.09
2022-08-20T10:25:07.026Z,34.08
2022-08-20T10:26:12.713Z,34.06
2022-08-20T10:27:16.868Z,34.03
2022-08-20T10:28:21.848Z,34.01
2022-08-20T10:29:29.247Z,33.91
2022-08-20T10:30:34.130Z,33.82
2022-08-20T10:31:38.244Z,33.73
2022-08-20T10:32:42.881Z,33.62
2022-08-20T10:33:47.713Z,33.75
2022-08-20T10:34:53.108Z,33.71
2022-08-20T10:36:00.077Z,33.71
2022-08-20T10:37:04.223Z,33.59
2022-08-20T10:38:08.503Z,33.53
2022-08-20T10:39:13.161Z,33.52
2022-08-20T10:40:17.404Z,33.46
2022-08-20T10:41:21.763Z,33.30
2022-08-20T10:42:25.541Z,33.37
2022-08-20T10:43:29.457Z,33.33
2022-08-20T10:44:33.480Z,33.11
2022-08-20T10:45:37.323Z,33.00
2022-08-20T10:46:45.947Z,32.95
2022-08-20T10:47:49.826Z,33.05
2022-08-20T10:48:54.470Z,32.98
2022-08-20T10:50:02.483Z,33.08
2022-08-20T10:51:07.025Z,33.14
2022-08-20T10:52:11.057Z,33.13
2022-08-20T10:53:15.107Z,33.16
2022-08-20T10:54:19.035Z,33.20
2022-08-20T10:55:23.387Z,33.26
2022-08-20T10:56:27.373Z,33.28
2022-08-20T10:57:36.583Z,33.34
2022-08-20T10:58:40.454Z,33.37
2022-08-20T10:59:48.987Z,33.39
2022-08-20T11:00:53.679Z,33.37
2022-08-20T11:01:57.716Z,33.23
2022-08-20T11:03:02.024Z,33.31
2022-08-20T11:04:05.941Z,33.33
2022-08-20T11:05:10.812Z,33.36
2022-08-20T11:06:15.301Z,33.40
2022-08-20T11:07:55.501Z,33.42
2022-08-20T11:08:58.481Z,33.29
2022-08-20T11:10:04.080Z,33.44
2022-08-20T11:11:09.014Z,33.45
2022-08-20T11:12:14.514Z,33.45
2022-08-20T11:13:18.515Z,33.53
2022-08-20T11:14:22.507Z,33.57
2022-08-20T11:15:27.435Z,33.60
2022-08-20T11:16:32.038Z,33.66
2022-08-20T11:17:40.159Z,33.68
2022-08-20T11:18:47.497Z,33.69
2022-08-20T11:19:53.363Z,33.71
2022-08-20T11:20:58.201Z,33.72
2022-08-20T11:22:02.281Z,33.75
2022-08-20T11:23:06.477Z,33.73
2022-08-20T11:24:10.817Z,33.63
2022-08-20T11:25:15.945Z,33.62
2022-08-20T11:26:25.701Z,33.55
2022-08-20T11:27:36.007Z,33.52
2022-08-20T11:28:40.104Z,33.51
2022-08-20T11:29:43.916Z,33.45
2022-08-20T11:30:50.280Z,33.33
2022-08-20T11:31:54.143Z,33.28
2022-08-20T11:33:00.935Z,33.19
2022-08-20T11:34:07.384Z,33.15
2022-08-20T11:35:41.726Z,33.13
2022-08-20T11:36:40.901Z,32.83
2022-08-20T11:37:45.237Z,32.77
2022-08-20T11:38:50.159Z,32.63
2022-08-20T11:39:55.319Z,32.63
2022-08-20T11:40:59.292Z,32.63
2022-08-20T11:42:03.518Z,32.61
2022-08-20T11:43:16.324Z,32.52
2022-08-20T11:44:21.758Z,32.51
2022-08-20T11:45:25.773Z,32.57
2022-08-20T11:46:29.840Z,32.59
2022-08-20T11:47:36.029Z,32.54
2022-08-20T11:48:40.029Z,32.56
2022-08-20T11:49:43.868Z,32.57
2022-08-20T11:50:49.159Z,32.59
2022-08-20T11:51:53.341Z,32.63
2022-08-20T11:52:57.185Z,32.55
2022-08-20T11:54:02.571Z,32.64
2022-08-20T11:55:12.507Z,32.59
2022-08-20T11:56:20.806Z,32.62
2022-08-20T11:57:30.327Z,32.58
2022-08-20T11:58:34.753Z,32.58
2022-08-20T11:59:38.747Z,32.55
2022-08-20T12:00:43.357Z,32.46
2022-08-20T12:02:02.454Z,32.43
2022-08-20T12:03:11.852Z,32.33
2022-08-20T12:04:16.356Z,32.30
2022-08-20T12:05:20.861Z,32.25
2022-08-20T12:06:24.759Z,32.22
2022-08-20T12:07:28.965Z,32.13
2022-08-20T12:08:32.668Z,32.18
2022-08-20T12:09:41.151Z,32.19
2022-08-20T12:10:54.238Z,32.21
2022-08-20T12:11:58.032Z,32.14
2022-08-20T12:13:02.726Z,32.18
2022-08-20T12:14:08.864Z,32.13
2022-08-20T12:15:17.353Z,32.13
2022-08-20T12:16:22.874Z,32.13
2022-08-20T12:17:30.469Z,32.10
2022-08-20T12:18:34.689Z,32.13
2022-08-20T12:19:43.955Z,32.09
2022-08-20T12:20:48.253Z,32.13
2022-08-20T12:21:57.746Z,32.15
2022-08-20T12:23:01.684Z,32.15
2022-08-20T12:24:05.695Z,32.11
2022-08-20T12:25:10.166Z,32.09
2022-08-20T12:26:17.109Z,32.08
2022-08-20T12:27:26.816Z,32.05
2022-08-20T12:28:32.199Z,32.00
2022-08-20T12:29:36.278Z,32.05
2022-08-20T12:30:42.375Z,32.05
2022-08-20T12:31:46.246Z,32.02
2022-08-20T12:32:50.710Z,31.97
2022-08-20T12:33:54.557Z,31.95
2022-08-20T12:34:59.373Z,31.96
2022-08-20T12:36:03.678Z,31.84
2022-08-20T12:37:18.647Z,31.87
2022-08-20T12:38:22.434Z,31.79
2022-08-20T12:39:26.444Z,31.79
2022-08-20T12:40:32.907Z,31.84
2022-08-20T12:41:36.989Z,31.83
2022-08-20T12:42:41.495Z,31.81
2022-08-20T12:43:45.247Z,31.80
2022-08-20T12:44:50.821Z,31.78
2022-08-20T12:45:55.732Z,31.75
2022-08-20T12:47:11.453Z,31.73
2022-08-20T12:48:16.065Z,31.69
2022-08-20T12:49:19.919Z,31.67
2022-08-20T12:50:31.294Z,31.64
2022-08-20T12:51:35.628Z,31.63
2022-08-20T12:52:41.466Z,31.60
2022-08-20T12:53:45.264Z,31.50
2022-08-20T12:54:50.092Z,31.56
2022-08-20T12:55:53.998Z,31.54
2022-08-20T12:56:58.096Z,31.49
2022-08-20T12:58:04.971Z,31.48
2022-08-20T12:59:09.408Z,31.48
2022-08-20T13:00:24.313Z,31.40
2022-08-20T13:01:28.369Z,31.45
2022-08-20T13:02:32.600Z,31.38
2022-08-20T13:03:40.198Z,31.40
2022-08-20T13:04:49.653Z,31.36
2022-08-20T13:05:53.475Z,31.34
2022-08-20T13:07:05.622Z,31.31
2022-08-20T13:08:14.349Z,31.32
2022-08-20T13:09:19.068Z,31.29
2022-08-20T13:10:32.153Z,31.27
2022-08-20T13:11:36.201Z,31.26
2022-08-20T13:12:40.282Z,31.24
2022-08-20T13:13:46.607Z,31.22
2022-08-20T13:14:50.471Z,31.20
2022-08-20T13:15:54.646Z,31.11
2022-08-20T13:17:03.119Z,31.07
2022-08-20T13:18:08.684Z,31.13
2022-08-20T13:19:12.777Z,31.07
2022-08-20T13:20:18.268Z,31.09
2022-08-20T13:21:24.022Z,31.03
2022-08-20T13:22:28.032Z,30.95
2022-08-20T13:23:31.899Z,30.84
2022-08-20T13:24:35.746Z,30.70
2022-08-20T13:25:39.538Z,30.57
2022-08-20T13:26:43.501Z,30.43
2022-08-20T13:27:48.107Z,30.29
2022-08-20T13:28:52.242Z,30.12
2022-08-20T13:29:59.099Z,29.97
2022-08-20T13:31:03.699Z,29.82
2022-08-20T13:32:08.978Z,29.79
2022-08-20T13:33:12.934Z,29.70
2022-08-20T13:34:16.726Z,29.57
2022-08-20T13:35:20.958Z,29.32
2022-08-20T13:36:25.179Z,29.11
2022-08-20T13:37:30.507Z,29.09
2022-08-20T13:38:34.622Z,28.83
2022-08-20T13:39:40.495Z,28.82
2022-08-20T13:40:44.459Z,28.70
2022-08-20T13:41:52.546Z,28.55
2022-08-20T13:42:56.544Z,28.49
2022-08-20T13:44:00.632Z,28.38
2022-08-20T13:45:07.406Z,28.25
2022-08-20T13:46:12.262Z,28.20
2022-08-20T13:47:24.030Z,28.06
2022-08-20T13:48:28.056Z,27.95
2022-08-20T13:49:33.850Z,27.91
2022-08-20T13:50:38.396Z,27.82
2022-08-20T13:51:42.140Z,27.72
2022-08-20T13:52:47.316Z,27.58
2022-08-20T13:53:52.309Z,27.51
2022-08-20T13:54:56.333Z,27.52
2022-08-20T13:56:00.746Z,27.47
2022-08-20T13:57:11.404Z,27.37
2022-08-20T13:58:18.508Z,27.23
2022-08-20T13:59:22.426Z,27.24
2022-08-20T14:00:32.576Z,27.19
2022-08-20T14:01:36.672Z,27.24
2022-08-20T14:02:42.882Z,27.15
2022-08-20T14:03:48.048Z,27.20
2022-08-20T14:04:53.851Z,27.15
2022-08-20T14:05:58.132Z,27.12
2022-08-20T14:07:17.870Z,27.18
2022-08-20T14:08:24.377Z,27.17
2022-08-20T14:09:28.900Z,27.15
2022-08-20T14:10:33.672Z,27.21
2022-08-20T14:11:37.463Z,27.20
2022-08-20T14:12:42.031Z,27.21
2022-08-20T14:13:45.864Z,27.23
2022-08-20T14:14:52.120Z,27.21
2022-08-20T14:15:56.941Z,26.99
2022-08-20T14:17:11.640Z,27.14
2022-08-20T14:18:16.511Z,27.15
2022-08-20T14:19:20.435Z,27.14
2022-08-20T14:20:32.142Z,27.12
2022-08-20T14:21:36.851Z,27.11
2022-08-20T14:22:42.758Z,27.14
2022-08-20T14:23:46.913Z,26.96
2022-08-20T14:24:52.051Z,27.03
2022-08-20T14:25:56.756Z,27.07
2022-08-20T14:27:00.846Z,27.00
2022-08-20T14:28:23.656Z,27.01
2022-08-20T14:29:27.737Z,27.02
2022-08-20T14:30:36.766Z,27.00